Time;durP1;ratioP1;P1;durP2;ratioP2;P2;SDS_P1;SDS_P2;PMS_P1;PMS_P2;Temp;Humidity;BMP_temperature;BMP_pressure;BME280_temperature;BME280_humidity;BME280_pressure;Samples;Min_cycle;Max_cycle;Signal;HPM_P1;HPM_P2
2023/05/13 00:01:22;;;;;;;12.38;6.50;;;14.00;99.90;;;;;;5003472;28;20060;-76
2023/05/13 00:03:49;;;;;;;7.20;6.10;;;14.00;99.90;;;;;;5020149;28;20132;-77
2023/05/13 00:06:16;;;;;;;10.73;6.95;;;14.00;99.90;;;;;;5000892;28;20054;-77
2023/05/13 00:08:43;;;;;;;8.40;5.50;;;14.00;99.90;;;;;;4997063;28;20517;-77
2023/05/13 00:11:10;;;;;;;9.23;5.70;;;14.00;99.90;;;;;;4991450;28;20042;-77
2023/05/13 00:13:36;;;;;;;7.95;5.43;;;14.00;99.90;;;;;;5008751;28;20701;-77
2023/05/13 00:16:03;;;;;;;7.18;5.45;;;14.00;99.90;;;;;;5003718;28;20412;-76
2023/05/13 00:18:30;;;;;;;7.07;5.65;;;13.90;99.90;;;;;;5002890;28;20053;-77
2023/05/13 00:20:57;;;;;;;5.85;4.65;;;13.90;99.90;;;;;;5001737;28;20082;-77
2023/05/13 00:23:23;;;;;;;7.68;5.60;;;13.90;99.90;;;;;;4997488;28;20129;-77
2023/05/13 00:25:50;;;;;;;6.32;5.32;;;13.90;99.90;;;;;;5010853;28;20069;-77
2023/05/13 00:28:17;;;;;;;6.78;5.20;;;13.90;99.90;;;;;;5010218;28;20053;-77
2023/05/13 00:30:44;;;;;;;6.57;4.80;;;13.90;99.90;;;;;;5003180;28;20492;-77
2023/05/13 00:33:11;;;;;;;6.97;6.05;;;13.90;99.90;;;;;;5003772;28;20061;-76
2023/05/13 00:35:38;;;;;;;6.55;5.35;;;13.80;99.90;;;;;;5000619;28;20050;-77
2023/05/13 00:38:05;;;;;;;8.38;5.88;;;13.70;99.90;;;;;;4996802;28;20091;-77
2023/05/13 00:40:36;;;;;;;7.28;5.72;;;13.80;99.90;;;;;;4994672;28;20042;-77
2023/05/13 00:43:02;;;;;;;7.70;6.00;;;13.80;99.90;;;;;;5019620;28;20049;-77
2023/05/13 00:45:29;;;;;;;7.70;5.97;;;13.80;99.90;;;;;;5005540;28;20510;-77
2023/05/13 00:47:56;;;;;;;6.10;5.50;;;13.80;99.90;;;;;;5019492;28;20061;-76
2023/05/13 00:50:24;;;;;;;8.07;6.07;;;13.80;99.90;;;;;;5000823;28;20057;-77
2023/05/13 00:52:50;;;;;;;11.35;5.88;;;13.80;99.90;;;;;;5011489;28;20492;-77
2023/05/13 00:55:17;;;;;;;9.75;6.20;;;13.80;99.90;;;;;;4994542;28;20053;-77
2023/05/13 00:57:44;;;;;;;8.52;6.10;;;13.80;99.90;;;;;;5005493;28;20490;-77
2023/05/13 01:00:11;;;;;;;10.48;6.75;;;13.70;99.90;;;;;;5005292;28;20042;-77
2023/05/13 01:03:08;;;;;;;6.25;5.60;;;13.70;99.90;;;;;;5001708;28;20060;-77
2023/05/13 01:05:45;;;;;;;13.20;5.78;;;13.70;99.90;;;;;;5000019;28;20046;-77
2023/05/13 01:08:34;;;;;;;11.00;6.00;;;13.60;99.90;;;;;;4997175;28;20445;-77
2023/05/13 01:11:33;;;;;;;8.48;5.47;;;13.60;99.90;;;;;;4993909;28;20045;-76
2023/05/13 01:14:15;;;;;;;6.63;5.00;;;13.70;99.90;;;;;;5001137;28;20051;-77
2023/05/13 01:16:50;;;;;;;6.05;4.95;;;13.60;99.90;;;;;;4999813;28;20050;-77
2023/05/13 01:19:19;;;;;;;4.88;4.40;;;13.60;99.90;;;;;;5001819;28;20046;-77
2023/05/13 01:21:53;;;;;;;4.77;4.27;;;13.60;99.90;;;;;;4997287;28;20730;-77
2023/05/13 01:24:20;;;;;;;7.28;4.40;;;13.60;99.90;;;;;;4994681;28;20048;-77
2023/05/13 01:26:48;;;;;;;4.95;4.45;;;13.60;99.90;;;;;;5000652;28;20098;-76
2023/05/13 01:29:15;;;;;;;5.30;4.10;;;13.50;99.90;;;;;;5005300;28;20077;-76
2023/05/13 01:31:43;;;;;;;10.00;4.70;;;13.40;99.90;;;;;;5000406;28;20050;-77
2023/05/13 01:34:12;;;;;;;6.88;4.30;;;13.40;99.90;;;;;;5003146;28;20494;-77
2023/05/13 01:36:39;;;;;;;10.10;4.45;;;13.30;99.90;;;;;;4995620;28;20450;-77
2023/05/13 01:39:07;;;;;;;5.25;4.75;;;13.30;99.90;;;;;;4996016;28;20068;-77
2023/05/13 01:41:34;;;;;;;4.53;4.07;;;13.30;99.90;;;;;;4998788;28;20081;-77
2023/05/13 01:44:01;;;;;;;4.72;3.85;;;13.30;99.90;;;;;;5021532;28;20045;-77
2023/05/13 01:46:28;;;;;;;4.70;3.72;;;13.40;99.90;;;;;;5002044;28;20133;-77
2023/05/13 01:48:54;;;;;;;5.72;5.05;;;13.40;99.90;;;;;;5015178;28;20152;-77
2023/05/13 01:51:21;;;;;;;5.85;4.35;;;13.30;99.90;;;;;;4999642;28;20399;-76
2023/05/13 01:53:48;;;;;;;6.18;4.50;;;13.30;99.90;;;;;;4994216;28;20124;-77
2023/05/13 01:56:15;;;;;;;5.38;4.60;;;13.30;99.90;;;;;;4998879;28;20046;-77
2023/05/13 01:58:41;;;;;;;4.90;4.40;;;13.30;99.90;;;;;;5005382;28;20142;-77
2023/05/13 02:01:08;;;;;;;5.00;4.50;;;13.30;99.90;;;;;;5016972;28;20061;-77
2023/05/13 02:03:36;;;;;;;9.23;4.68;;;13.30;99.90;;;;;;5000458;28;20049;-77
2023/05/13 02:06:03;;;;;;;10.52;5.80;;;13.30;99.90;;;;;;4999518;28;20050;-77
2023/05/13 02:08:30;;;;;;;7.22;4.85;;;13.30;99.90;;;;;;4994990;28;20038;-76
2023/05/13 02:10:58;;;;;;;5.82;5.22;;;13.30;99.90;;;;;;5013486;28;20050;-76
2023/05/13 02:13:25;;;;;;;9.18;5.30;;;13.30;99.90;;;;;;5008378;28;20137;-77
2023/05/13 02:15:53;;;;;;;9.52;5.00;;;13.30;99.90;;;;;;4998988;28;20058;-77
2023/05/13 02:18:20;;;;;;;5.85;5.30;;;13.30;99.90;;;;;;5002498;28;20073;-77
2023/05/13 02:20:46;;;;;;;6.18;5.28;;;13.20;99.90;;;;;;4997853;28;20054;-77
2023/05/13 02:23:13;;;;;;;10.05;5.63;;;13.30;99.90;;;;;;4995485;28;20125;-77
2023/05/13 02:25:41;;;;;;;8.38;5.35;;;13.30;99.90;;;;;;4994669;28;20111;-77
2023/05/13 02:28:08;;;;;;;11.38;5.50;;;13.20;99.90;;;;;;5007584;28;20050;-77
2023/05/13 02:30:35;;;;;;;5.30;4.80;;;13.30;99.90;;;;;;4999299;28;20434;-77
2023/05/13 02:33:01;;;;;;;7.15;5.00;;;13.30;99.90;;;;;;5015274;28;20057;-77
2023/05/13 02:35:29;;;;;;;6.85;5.65;;;13.30;99.90;;;;;;4998245;28;20064;-77
2023/05/13 02:37:56;;;;;;;8.80;5.20;;;13.30;99.90;;;;;;4994880;28;20054;-77
2023/05/13 02:40:23;;;;;;;11.63;5.43;;;13.30;99.90;;;;;;4993362;28;20141;-77
2023/05/13 02:42:50;;;;;;;7.00;5.13;;;13.30;99.90;;;;;;5007741;28;20042;-77
2023/05/13 02:45:17;;;;;;;9.25;5.63;;;13.30;99.90;;;;;;4999656;28;20038;-77
2023/05/13 02:47:43;;;;;;;6.13;4.70;;;13.30;99.90;;;;;;5000235;28;20050;-77
2023/05/13 02:50:11;;;;;;;7.90;4.72;;;13.20;99.90;;;;;;4998655;28;20070;-77
2023/05/13 02:52:38;;;;;;;7.38;5.25;;;13.20;99.90;;;;;;4994399;28;20054;-77
2023/05/13 02:55:06;;;;;;;10.40;5.22;;;13.10;99.90;;;;;;4993048;28;20144;-77
2023/05/13 02:57:33;;;;;;;6.53;4.90;;;13.20;99.90;;;;;;5006269;28;20061;-77
2023/05/13 03:00:00;;;;;;;8.73;5.40;;;13.10;99.90;;;;;;5003582;28;20437;-77
2023/05/13 03:02:27;;;;;;;6.85;4.72;;;13.10;99.90;;;;;;5004106;28;20061;-77
2023/05/13 03:04:55;;;;;;;7.18;4.75;;;13.10;99.90;;;;;;5000448;28;20050;-77
2023/05/13 03:07:23;;;;;;;7.55;4.78;;;13.10;99.90;;;;;;4998933;28;20054;-77
2023/05/13 03:09:49;;;;;;;8.68;4.53;;;13.00;99.90;;;;;;4997931;28;20413;-77
2023/05/13 03:12:16;;;;;;;5.05;4.55;;;12.90;99.90;;;;;;5010988;28;20045;-77
2023/05/13 03:14:44;;;;;;;5.25;4.63;;;12.90;99.90;;;;;;5004543;28;20149;-77
2023/05/13 03:17:11;;;;;;;5.80;4.72;;;12.90;99.90;;;;;;5003868;28;20084;-77
2023/05/13 03:19:38;;;;;;;6.68;4.85;;;12.90;99.90;;;;;;5002199;28;20077;-77
2023/05/13 03:22:05;;;;;;;4.68;4.20;;;12.90;99.90;;;;;;4999704;28;20042;-77
2023/05/13 03:24:32;;;;;;;5.30;4.75;;;12.80;99.90;;;;;;4995212;28;20081;-77
2023/05/13 03:26:58;;;;;;;9.38;5.55;;;12.80;99.90;;;;;;5010860;28;20485;-77
2023/05/13 03:29:25;;;;;;;5.18;4.50;;;12.80;99.90;;;;;;5005479;28;20049;-77
2023/05/13 03:31:52;;;;;;;4.88;4.20;;;12.80;99.90;;;;;;5002879;28;20554;-77
2023/05/13 03:34:19;;;;;;;7.43;4.93;;;12.80;99.90;;;;;;5002324;28;20056;-77
2023/05/13 03:36:46;;;;;;;9.57;4.60;;;12.90;99.90;;;;;;4998364;28;20050;-77
2023/05/13 03:39:13;;;;;;;6.50;4.57;;;12.80;99.90;;;;;;4997018;28;20137;-77
2023/05/13 03:41:39;;;;;;;7.68;4.07;;;12.80;99.90;;;;;;5008112;28;20060;-77
2023/05/13 03:44:06;;;;;;;7.22;4.65;;;12.80;99.90;;;;;;5006259;28;20137;-77
2023/05/13 03:46:33;;;;;;;11.68;4.80;;;12.80;99.90;;;;;;5002909;28;20143;-77
2023/05/13 03:48:59;;;;;;;6.90;4.85;;;12.80;99.90;;;;;;5001944;28;20073;-77
2023/05/13 03:51:26;;;;;;;9.50;4.45;;;12.80;99.90;;;;;;4998988;28;20042;-77
2023/05/13 03:53:53;;;;;;;7.30;5.07;;;12.70;99.90;;;;;;4979081;28;20125;-77
2023/05/13 03:56:20;;;;;;;5.18;4.68;;;12.70;99.90;;;;;;5005829;28;20133;-77
2023/05/13 03:58:47;;;;;;;7.95;5.60;;;12.70;99.90;;;;;;5006673;28;20070;-77
2023/05/13 04:01:14;;;;;;;8.32;5.75;;;12.70;99.90;;;;;;5017581;28;20476;-77
2023/05/13 04:03:44;;;;;;;5.53;4.93;;;12.70;99.90;;;;;;5001932;28;20061;-77
2023/05/13 04:06:12;;;;;;;10.32;4.72;;;12.70;99.90;;;;;;4998094;28;20042;-77
2023/05/13 04:08:39;;;;;;;8.23;5.75;;;12.70;99.90;;;;;;4995366;28;20057;-77
2023/05/13 04:11:06;;;;;;;6.75;5.53;;;12.70;99.90;;;;;;5020459;28;20050;-77
2023/05/13 04:13:34;;;;;;;7.35;4.97;;;12.70;99.90;;;;;;5008324;28;20050;-77
2023/05/13 04:16:02;;;;;;;6.95;5.28;;;12.70;99.90;;;;;;5002498;28;20092;-77
2023/05/13 04:18:29;;;;;;;7.88;5.45;;;12.80;99.90;;;;;;5001656;28;20145;-77
2023/05/13 04:20:56;;;;;;;6.70;5.22;;;12.80;99.90;;;;;;4997929;28;20461;-77
2023/05/13 04:23:23;;;;;;;7.45;6.35;;;12.80;99.90;;;;;;4995708;28;20116;-77
2023/05/13 04:25:51;;;;;;;8.45;6.32;;;12.80;99.90;;;;;;5002276;28;20200;-76
2023/05/13 04:28:18;;;;;;;10.05;6.47;;;12.80;99.90;;;;;;5008883;28;20505;-76
2023/05/13 04:30:45;;;;;;;7.10;5.88;;;12.80;99.90;;;;;;5001520;28;20054;-76
2023/05/13 04:33:12;;;;;;;6.55;5.85;;;12.80;99.90;;;;;;5001706;28;20145;-76
2023/05/13 04:35:38;;;;;;;9.88;6.28;;;12.80;99.90;;;;;;4998371;28;20502;-76
2023/05/13 04:38:05;;;;;;;6.53;5.50;;;12.80;99.90;;;;;;4995439;28;20060;-77
2023/05/13 04:40:32;;;;;;;6.72;5.60;;;12.80;99.90;;;;;;5001001;28;20062;-77
2023/05/13 04:42:59;;;;;;;7.45;6.35;;;12.90;99.90;;;;;;5007235;28;20037;-77
2023/05/13 04:45:25;;;;;;;7.22;6.53;;;12.80;99.90;;;;;;5002558;28;20128;-76
2023/05/13 04:47:52;;;;;;;7.45;6.20;;;12.80;99.90;;;;;;5001974;28;20056;-76
2023/05/13 04:50:22;;;;;;;9.70;6.85;;;12.80;99.90;;;;;;4996580;28;20054;-76
2023/05/13 04:52:49;;;;;;;7.32;6.15;;;12.80;99.90;;;;;;4996039;28;20058;-77
2023/05/13 04:55:16;;;;;;;10.18;6.55;;;12.80;99.90;;;;;;5014907;28;20446;-76
2023/05/13 04:57:43;;;;;;;8.82;6.55;;;12.80;99.90;;;;;;5008108;28;20406;-77
2023/05/13 05:00:10;;;;;;;10.05;6.57;;;12.70;99.90;;;;;;5018362;28;20057;-76
2023/05/13 05:02:37;;;;;;;10.38;6.32;;;12.70;99.90;;;;;;5000404;28;20068;-75
2023/05/13 05:05:04;;;;;;;8.32;6.03;;;12.70;99.90;;;;;;4999751;28;20421;-77
2023/05/13 05:07:31;;;;;;;11.25;6.00;;;12.70;99.90;;;;;;4993634;28;20046;-76
2023/05/13 05:09:58;;;;;;;7.75;6.95;;;12.80;99.90;;;;;;4999815;28;20130;-77
2023/05/13 05:12:25;;;;;;;10.18;6.88;;;12.80;99.90;;;;;;5009357;28;20042;-76
2023/05/13 05:14:51;;;;;;;7.80;6.97;;;12.80;99.90;;;;;;4985068;28;20462;-77
2023/05/13 05:17:18;;;;;;;7.20;6.47;;;12.90;99.90;;;;;;5001131;28;20050;-76
2023/05/13 05:19:45;;;;;;;9.05;6.57;;;12.90;99.90;;;;;;5000304;28;20046;-77
2023/05/13 05:22:11;;;;;;;11.68;6.50;;;12.80;99.90;;;;;;4993228;28;20125;-76
2023/05/13 05:24:38;;;;;;;8.30;6.35;;;12.80;99.90;;;;;;4997887;28;20498;-77
2023/05/13 05:27:05;;;;;;;8.23;6.40;;;12.80;99.90;;;;;;4991987;28;20049;-76
2023/05/13 05:29:32;;;;;;;7.03;6.32;;;12.80;99.90;;;;;;5003223;28;20054;-76
2023/05/13 05:31:59;;;;;;;6.72;6.03;;;12.80;99.90;;;;;;5000484;28;20069;-77
2023/05/13 05:34:26;;;;;;;7.18;6.05;;;12.80;99.90;;;;;;4999534;28;20096;-76
2023/05/13 05:36:53;;;;;;;10.60;6.40;;;12.80;99.90;;;;;;4994580;28;20058;-76
2023/05/13 05:39:20;;;;;;;7.45;5.15;;;12.90;99.90;;;;;;5012425;28;20057;-77
2023/05/13 05:41:47;;;;;;;7.88;6.20;;;12.90;99.90;;;;;;5006816;28;20096;-77
2023/05/13 05:44:14;;;;;;;7.35;6.05;;;13.00;99.90;;;;;;5003374;28;20066;-77
2023/05/13 05:46:41;;;;;;;6.47;5.10;;;13.00;99.90;;;;;;5000784;28;20050;-76
2023/05/13 05:49:07;;;;;;;6.53;5.30;;;13.00;99.90;;;;;;5014710;28;20052;-76
2023/05/13 05:51:34;;;;;;;6.35;5.38;;;13.00;99.90;;;;;;4995669;28;20453;-76
2023/05/13 05:54:01;;;;;;;8.73;5.82;;;13.00;99.90;;;;;;4996280;28;20090;-76
2023/05/13 05:56:28;;;;;;;6.55;5.40;;;13.10;99.90;;;;;;5005621;28;20054;-76
2023/05/13 05:58:55;;;;;;;7.15;5.63;;;13.00;99.90;;;;;;5018807;28;20068;-76
2023/05/13 06:01:22;;;;;;;9.27;5.50;;;13.00;99.90;;;;;;4999672;28;20501;-76
2023/05/13 06:03:48;;;;;;;6.35;5.55;;;13.00;99.90;;;;;;4996125;28;20421;-76
2023/05/13 06:06:18;;;;;;;9.05;5.47;;;13.00;99.90;;;;;;4993349;28;20062;-76
2023/05/13 06:08:45;;;;;;;10.60;5.50;;;13.00;99.90;;;;;;4993993;28;20061;-76
2023/05/13 06:11:11;;;;;;;9.30;5.20;;;13.10;99.90;;;;;;5022754;28;20128;-76
2023/05/13 06:13:38;;;;;;;5.28;4.78;;;13.10;99.90;;;;;;5000899;28;20054;-76
2023/05/13 06:16:05;;;;;;;8.55;5.00;;;13.10;99.90;;;;;;5015565;28;20082;-76
2023/05/13 06:18:32;;;;;;;5.38;4.88;;;13.20;99.90;;;;;;4998611;28;20073;-76
2023/05/13 06:20:59;;;;;;;7.30;5.88;;;13.10;99.90;;;;;;4995002;28;20069;-76
2023/05/13 06:23:25;;;;;;;6.68;5.18;;;13.10;99.90;;;;;;4994642;28;20074;-76
2023/05/13 06:25:52;;;;;;;6.97;5.30;;;13.10;99.90;;;;;;5008052;28;20056;-76
2023/05/13 06:28:19;;;;;;;5.88;4.88;;;13.10;99.90;;;;;;5006873;28;20040;-77
2023/05/13 06:30:46;;;;;;;9.02;5.22;;;13.10;99.90;;;;;;4999600;28;20050;-77
2023/05/13 06:33:13;;;;;;;6.53;5.05;;;13.00;99.90;;;;;;4998291;28;20057;-77
2023/05/13 06:35:40;;;;;;;7.13;5.53;;;13.00;99.90;;;;;;4995745;28;20059;-77
2023/05/13 06:38:06;;;;;;;5.40;4.90;;;13.00;99.90;;;;;;4990333;28;20050;-77
2023/05/13 06:40:33;;;;;;;6.40;5.78;;;12.90;99.90;;;;;;5001491;28;20083;-77
2023/05/13 06:43:00;;;;;;;9.68;4.80;;;12.90;99.90;;;;;;5006234;28;20054;-77
2023/05/13 06:45:26;;;;;;;5.72;4.53;;;12.90;99.90;;;;;;4998538;28;20042;-77
2023/05/13 06:47:53;;;;;;;12.18;5.72;;;13.00;99.90;;;;;;4996244;28;20129;-77
2023/05/13 06:50:20;;;;;;;7.20;5.07;;;13.00;99.90;;;;;;4995493;28;20050;-77
2023/05/13 06:52:47;;;;;;;5.68;4.90;;;13.00;99.90;;;;;;4992087;28;20050;-77
2023/05/13 06:55:15;;;;;;;6.57;5.35;;;13.00;99.90;;;;;;5021245;28;20058;-77
2023/05/13 06:57:45;;;;;;;7.90;5.22;;;13.00;99.90;;;;;;4990583;28;20066;-77
2023/05/13 07:00:18;;;;;;;7.20;4.95;;;13.10;99.90;;;;;;4999655;28;20370;-77
2023/05/13 07:02:48;;;;;;;11.18;5.43;;;13.10;99.90;;;;;;4991678;28;20061;-77
2023/05/13 07:05:14;;;;;;;6.75;5.15;;;13.10;99.90;;;;;;4995128;28;20061;-77
2023/05/13 07:07:42;;;;;;;5.75;5.15;;;13.10;99.90;;;;;;4993485;28;20137;-77
2023/05/13 07:10:09;;;;;;;6.88;5.32;;;13.10;99.90;;;;;;5020001;28;20046;-77
2023/05/13 07:12:36;;;;;;;6.60;5.28;;;13.20;99.90;;;;;;5005415;28;20053;-77
2023/05/13 07:15:03;;;;;;;8.73;4.72;;;13.10;99.90;;;;;;4998176;28;20058;-77
2023/05/13 07:17:30;;;;;;;13.52;5.20;;;13.20;99.90;;;;;;4999300;28;20518;-77
2023/05/13 07:19:58;;;;;;;6.57;5.25;;;13.20;99.90;;;;;;4994259;28;20088;-77
2023/05/13 07:22:24;;;;;;;7.75;5.80;;;13.20;99.90;;;;;;4976499;28;20144;-77
2023/05/13 07:24:51;;;;;;;7.85;5.38;;;13.30;99.90;;;;;;4999456;28;20054;-76
2023/05/13 07:27:18;;;;;;;7.03;5.93;;;13.30;99.90;;;;;;4999682;28;20038;-77
2023/05/13 07:29:44;;;;;;;6.68;5.28;;;13.30;99.90;;;;;;4982103;28;20230;-77
2023/05/13 07:32:11;;;;;;;7.90;5.43;;;13.30;99.90;;;;;;5014763;28;20046;-76
2023/05/13 07:34:38;;;;;;;7.45;6.05;;;13.30;99.90;;;;;;4995533;28;20050;-76
2023/05/13 07:37:04;;;;;;;6.30;5.70;;;13.20;99.90;;;;;;4992672;28;20409;-77
2023/05/13 07:39:31;;;;;;;6.22;5.60;;;13.20;99.90;;;;;;5000271;28;20053;-77
2023/05/13 07:41:58;;;;;;;5.88;5.28;;;13.20;99.90;;;;;;5021335;28;20480;-77
2023/05/13 07:44:25;;;;;;;6.47;5.38;;;13.20;99.90;;;;;;4998318;28;20047;-77
2023/05/13 07:46:52;;;;;;;7.22;5.47;;;13.20;99.90;;;;;;5000365;28;20148;-77
2023/05/13 07:49:20;;;;;;;7.40;5.28;;;13.20;99.90;;;;;;5016410;28;20049;-77
2023/05/13 07:51:47;;;;;;;7.68;5.50;;;13.30;99.90;;;;;;4993072;28;20050;-77
2023/05/13 07:54:13;;;;;;;6.07;5.40;;;13.30;99.90;;;;;;5019217;28;20056;-77
2023/05/13 07:56:42;;;;;;;7.43;5.53;;;13.40;99.90;;;;;;5008364;28;20378;-77
2023/05/13 07:59:09;;;;;;;5.95;5.40;;;13.40;99.90;;;;;;5002609;28;20137;-77
2023/05/13 08:01:36;;;;;;;5.72;5.00;;;13.40;99.90;;;;;;5002579;28;20054;-77
2023/05/13 08:04:03;;;;;;;6.10;5.40;;;13.50;99.90;;;;;;4999536;28;20402;-77
2023/05/13 08:06:31;;;;;;;6.05;4.93;;;13.50;99.90;;;;;;4996137;28;20148;-77
2023/05/13 08:08:58;;;;;;;6.50;4.80;;;13.50;99.90;;;;;;5001774;28;20128;-77
2023/05/13 08:11:25;;;;;;;8.55;4.97;;;13.50;99.90;;;;;;5009902;28;20386;-77
2023/05/13 08:13:51;;;;;;;5.50;5.00;;;13.50;99.90;;;;;;5003127;28;20141;-77
2023/05/13 08:16:18;;;;;;;7.22;5.22;;;13.50;99.90;;;;;;5002706;28;20050;-77
2023/05/13 08:18:45;;;;;;;4.97;4.20;;;13.60;99.90;;;;;;4999321;28;20095;-77
2023/05/13 08:21:12;;;;;;;4.78;4.32;;;13.70;99.90;;;;;;5012701;28;20576;-76
2023/05/13 08:23:39;;;;;;;5.13;4.63;;;13.80;99.90;;;;;;5000582;28;20045;-77
2023/05/13 08:26:11;;;;;;;6.72;4.97;;;13.80;99.90;;;;;;5006535;28;20519;-77
2023/05/13 08:28:38;;;;;;;4.95;3.65;;;13.90;99.90;;;;;;5003126;28;20516;-77
2023/05/13 08:31:05;;;;;;;4.68;4.13;;;14.00;99.90;;;;;;5000011;28;20120;-77
2023/05/13 08:33:32;;;;;;;4.93;4.40;;;14.10;99.90;;;;;;4999518;28;20056;-77
2023/05/13 08:36:00;;;;;;;5.90;4.13;;;14.10;99.90;;;;;;4996696;28;20046;-77
2023/05/13 08:38:26;;;;;;;4.53;4.00;;;14.10;99.90;;;;;;5017960;28;20140;-77
2023/05/13 08:40:53;;;;;;;5.78;4.10;;;14.10;99.90;;;;;;5008111;28;20437;-77
2023/05/13 08:43:22;;;;;;;4.95;3.50;;;14.10;99.90;;;;;;5003880;28;20613;-77
2023/05/13 08:45:52;;;;;;;4.63;3.92;;;14.00;99.90;;;;;;5000391;28;20050;-77
2023/05/13 08:48:20;;;;;;;4.93;4.27;;;14.00;99.90;;;;;;5015136;28;20082;-77
2023/05/13 08:50:48;;;;;;;6.22;3.85;;;14.00;99.90;;;;;;4994633;28;20317;-77
2023/05/13 08:53:16;;;;;;;5.93;4.22;;;14.00;99.90;;;;;;5016212;28;20125;-77
2023/05/13 08:55:43;;;;;;;3.92;3.63;;;14.00;99.90;;;;;;5007031;28;20054;-77
2023/05/13 08:58:10;;;;;;;4.88;4.40;;;14.10;99.90;;;;;;5003636;28;20139;-76
2023/05/13 09:00:39;;;;;;;7.18;4.10;;;14.20;99.90;;;;;;4997791;28;20153;-77
2023/05/13 09:03:05;;;;;;;7.03;4.90;;;14.30;99.90;;;;;;5000026;28;20089;-77
2023/05/13 09:05:33;;;;;;;4.88;4.47;;;14.30;99.90;;;;;;4995505;28;20149;-77
2023/05/13 09:08:09;;;;;;;6.35;4.30;;;14.30;99.90;;;;;;4998209;28;20173;-77
2023/05/13 09:10:36;;;;;;;3.92;3.63;;;14.40;99.90;;;;;;5007116;28;20045;-76
2023/05/13 09:13:04;;;;;;;6.57;4.05;;;14.50;99.90;;;;;;5003411;28;20064;-77
2023/05/13 09:15:31;;;;;;;4.82;4.03;;;14.50;99.90;;;;;;4999662;28;20462;-76
2023/05/13 09:18:02;;;;;;;4.95;4.10;;;14.50;99.90;;;;;;4996072;28;20502;-77
2023/05/13 09:20:29;;;;;;;;;;;14.60;99.90;;;;;;4995178;28;20043;-77
2023/05/13 09:23:00;;;;;;;7.97;5.30;;;14.60;99.90;;;;;;4997766;28;20308;-77
2023/05/13 09:25:27;;;;;;;6.40;4.70;;;14.70;99.90;;;;;;5022049;28;20513;-77
2023/05/13 09:27:57;;;;;;;7.07;5.25;;;14.70;99.90;;;;;;4999824;28;20059;-77
2023/05/13 09:30:28;;;;;;;9.35;4.80;;;14.70;99.90;;;;;;5041045;23;20104;-77
2023/05/13 09:33:15;;;;;;;6.38;4.40;;;14.80;99.90;;;;;;5018914;28;20041;-77
2023/05/13 09:35:47;;;;;;;8.73;3.85;;;14.80;99.90;;;;;;5011499;28;20061;-77
2023/05/13 09:38:19;;;;;;;5.07;4.20;;;14.80;99.90;;;;;;5020250;28;20152;-77
2023/05/13 09:40:53;;;;;;;4.93;4.43;;;14.80;99.90;;;;;;5012092;28;20058;-77
2023/05/13 09:43:22;;;;;;;6.30;4.18;;;14.90;99.90;;;;;;4991288;28;20054;-77
2023/05/13 09:45:53;;;;;;;4.70;4.30;;;15.10;99.90;;;;;;4992219;28;20050;-77
2023/05/13 09:48:22;;;;;;;6.22;4.40;;;15.20;99.90;;;;;;5008992;28;20042;-77
2023/05/13 09:50:50;;;;;;;4.57;4.00;;;15.30;99.90;;;;;;4998375;28;20057;-77
2023/05/13 09:53:19;;;;;;;5.75;4.43;;;15.20;99.90;;;;;;4993598;28;20077;-77
2023/05/13 09:56:08;;;;;;;4.70;4.25;;;15.40;99.90;;;;;;5003557;28;20060;-77
2023/05/13 09:58:35;;;;;;;8.65;4.18;;;15.40;99.90;;;;;;5008503;28;20054;-77
2023/05/13 10:01:02;;;;;;;5.75;3.50;;;15.50;99.90;;;;;;4992769;28;20062;-77
2023/05/13 10:03:30;;;;;;;6.40;4.57;;;15.60;99.90;;;;;;4993507;28;20569;-77
2023/05/13 10:05:58;;;;;;;4.97;4.20;;;15.60;99.90;;;;;;5006145;28;20140;-77
2023/05/13 10:08:29;;;;;;;6.18;3.80;;;15.80;99.90;;;;;;4991850;28;20101;-77
2023/05/13 10:10:57;;;;;;;4.63;4.05;;;15.90;99.90;;;;;;5006394;28;20054;-78
2023/05/13 10:13:25;;;;;;;6.68;3.38;;;16.00;99.90;;;;;;4992418;28;20073;-78
2023/05/13 10:15:53;;;;;;;5.03;3.70;;;16.10;99.90;;;;;;4985973;28;20134;-77
2023/05/13 10:18:22;;;;;;;4.28;3.88;;;16.20;99.90;;;;;;5008862;28;20043;-78
2023/05/13 10:20:51;;;;;;;5.93;3.38;;;16.40;99.90;;;;;;4994277;28;20061;-77
2023/05/13 10:23:21;;;;;;;4.05;3.65;;;16.50;99.90;;;;;;4991343;28;20058;-77
2023/05/13 10:25:52;;;;;;;4.53;3.33;;;16.60;99.90;;;;;;5003445;28;20073;-77
2023/05/13 10:28:19;;;;;;;4.97;3.22;;;16.70;99.90;;;;;;4971001;28;20582;-77
2023/05/13 10:30:51;;;;;;;4.97;3.50;;;16.80;99.90;;;;;;4992370;28;20141;-77
2023/05/13 10:33:18;;;;;;;6.45;3.95;;;16.90;99.90;;;;;;5007362;28;20061;-77
2023/05/13 10:36:10;;;;;;;7.78;4.00;;;17.00;99.90;;;;;;4995050;28;20096;-78
2023/05/13 10:39:01;;;;;;;3.55;3.25;;;17.20;99.90;;;;;;4993172;28;20509;-77
2023/05/13 10:42:02;;;;;;;5.22;3.75;;;17.30;99.90;;;;;;4989869;28;20046;-77
2023/05/13 10:44:30;;;;;;;4.50;3.90;;;17.40;99.90;;;;;;4986488;28;20051;-77
2023/05/13 10:46:57;;;;;;;5.90;4.10;;;17.40;99.90;;;;;;4993747;28;20046;-78
2023/05/13 10:49:32;;;;;;;4.85;4.03;;;17.50;99.90;;;;;;4993511;28;20509;-77
2023/05/13 10:52:06;;;;;;;14.07;4.43;;;17.60;99.90;;;;;;4993553;28;20137;-77
2023/05/13 10:54:38;;;;;;;8.52;3.50;;;17.60;99.90;;;;;;4993062;28;20062;-77
2023/05/13 10:57:06;;;;;;;4.00;3.17;;;17.70;99.90;;;;;;5003732;28;20055;-77
2023/05/13 10:59:35;;;;;;;3.65;2.85;;;17.60;99.90;;;;;;4992023;28;20558;-77
2023/05/13 11:02:18;;;;;;;3.88;3.17;;;17.70;99.90;;;;;;4994714;28;20061;-77
2023/05/13 11:04:59;;;;;;;3.15;2.58;;;17.70;99.90;;;;;;4992612;28;20050;-78
2023/05/13 11:07:29;;;;;;;3.40;3.10;;;17.80;99.90;;;;;;5009752;28;20077;-78
2023/05/13 11:09:55;;;;;;;4.13;3.30;;;17.80;99.90;;;;;;4994187;28;20077;-77
2023/05/13 11:12:22;;;;;;;3.78;2.92;;;17.60;99.90;;;;;;4994015;28;20058;-77
2023/05/13 11:14:49;;;;;;;5.07;3.40;;;17.60;99.90;;;;;;4993044;28;20050;-77
2023/05/13 11:17:19;;;;;;;5.22;3.38;;;17.50;99.90;;;;;;5008704;28;20050;-78
2023/05/13 11:19:49;;;;;;;3.38;2.85;;;17.30;99.90;;;;;;4999123;28;20054;-77
2023/05/13 11:22:20;;;;;;;3.60;3.28;;;17.10;99.90;;;;;;4995708;28;20042;-77
2023/05/13 11:25:08;;;;;;;5.22;3.70;;;17.00;99.90;;;;;;5005930;28;20129;-77
2023/05/13 11:27:39;;;;;;;5.00;3.60;;;16.90;99.90;;;;;;4997853;28;20054;-78
2023/05/13 11:30:20;;;;;;;4.78;3.08;;;16.90;99.90;;;;;;4997774;28;20042;-79
2023/05/13 11:32:50;;;;;;;3.60;3.20;;;17.00;99.90;;;;;;4998710;28;20064;-78
2023/05/13 11:35:28;;;;;;;4.03;3.08;;;17.00;99.90;;;;;;4990725;28;20054;-77
2023/05/13 11:37:56;;;;;;;4.90;3.20;;;17.10;99.90;;;;;;4998597;28;20054;-78
2023/05/13 11:40:29;;;;;;;2.88;2.67;;;17.20;99.90;;;;;;5000825;28;20062;-78
2023/05/13 11:42:57;;;;;;;4.90;3.20;;;17.10;99.90;;;;;;4995868;28;20465;-78
2023/05/13 11:45:25;;;;;;;4.18;2.67;;;17.20;99.90;;;;;;4999649;28;20070;-78
2023/05/13 11:47:53;;;;;;;3.70;3.10;;;17.30;99.90;;;;;;5001523;28;20065;-78
2023/05/13 11:50:22;;;;;;;4.45;3.00;;;17.20;99.90;;;;;;5014001;28;20117;-78
2023/05/13 11:52:51;;;;;;;3.88;3.47;;;17.30;99.90;;;;;;4990550;28;20137;-78
2023/05/13 11:55:35;;;;;;;3.00;2.70;;;17.30;99.90;;;;;;4999940;28;20048;-78
2023/05/13 11:58:02;;;;;;;3.20;2.90;;;17.40;99.90;;;;;;4995888;28;20065;-79
2023/05/13 12:00:31;;;;;;;2.88;2.67;;;17.50;99.90;;;;;;5012972;28;20102;-76
2023/05/13 12:02:58;;;;;;;2.85;2.65;;;17.50;99.90;;;;;;4999292;28;20064;-77
2023/05/13 12:05:26;;;;;;;3.03;2.72;;;17.50;99.90;;;;;;5011459;28;20413;-77
2023/05/13 12:07:57;;;;;;;3.25;2.60;;;17.50;99.90;;;;;;4996397;28;20053;-77
2023/05/13 12:10:25;;;;;;;2.78;2.28;;;17.60;99.90;;;;;;4995513;28;20042;-77
2023/05/13 12:12:52;;;;;;;3.33;2.53;;;17.60;99.90;;;;;;4993854;28;20054;-77
2023/05/13 12:15:20;;;;;;;4.35;2.42;;;17.60;99.90;;;;;;5000563;28;20113;-77
2023/05/13 12:17:48;;;;;;;2.67;2.30;;;17.60;99.90;;;;;;4991601;28;20145;-77
2023/05/13 12:20:19;;;;;;;3.42;2.30;;;17.70;99.90;;;;;;4996356;28;20058;-78
2023/05/13 12:22:46;;;;;;;2.28;2.08;;;17.80;99.90;;;;;;5005732;28;20051;-77
2023/05/13 12:25:32;;;;;;;2.65;2.20;;;17.80;99.90;;;;;;4996641;28;20490;-77
2023/05/13 12:27:58;;;;;;;2.97;2.60;;;17.80;99.90;;;;;;5003373;28;20058;-77
2023/05/13 12:30:33;;;;;;;3.83;2.45;;;17.80;99.90;;;;;;4995647;28;20130;-77
2023/05/13 12:33:00;;;;;;;4.05;2.45;;;17.90;99.90;;;;;;4995969;28;20140;-77
2023/05/13 12:35:27;;;;;;;2.58;2.38;;;17.90;99.90;;;;;;5011076;28;20050;-78
2023/05/13 12:38:01;;;;;;;2.45;1.92;;;17.90;99.90;;;;;;4997087;28;20061;-77
2023/05/13 12:40:29;;;;;;;3.55;2.10;;;17.90;99.90;;;;;;4996599;28;20133;-76
2023/05/13 12:43:00;;;;;;;1.98;1.88;;;17.70;99.90;;;;;;4997426;28;20054;-77
2023/05/13 12:45:31;;;;;;;2.58;1.90;;;17.70;99.90;;;;;;4982176;28;20070;-78
2023/05/13 12:47:59;;;;;;;1.90;1.70;;;17.80;99.90;;;;;;5000508;28;20058;-78
2023/05/13 12:50:26;;;;;;;2.20;1.73;;;17.60;99.90;;;;;;4997699;28;20418;-78
2023/05/13 12:52:53;;;;;;;1.90;1.70;;;17.50;99.90;;;;;;5008290;28;20141;-79